createdAt,value
2022-10-17T00:00:55.581Z,4.93
2022-10-17T00:03:22.169Z,5.18
2022-10-17T00:05:49.001Z,6.18
2022-10-17T00:08:19.244Z,7.50
2022-10-17T00:10:46.171Z,6.68
2022-10-17T00:13:13.072Z,7.18
2022-10-17T00:15:44.506Z,4.78
2022-10-17T00:18:11.181Z,5.25
2022-10-17T00:20:37.700Z,6.80
2022-10-17T00:23:04.245Z,6.43
2022-10-17T00:25:30.880Z,4.32
2022-10-17T00:27:57.413Z,10.27
2022-10-17T00:30:24.023Z,4.65
2022-10-17T00:32:50.701Z,5.53
2022-10-17T00:35:17.408Z,5.60
2022-10-17T00:37:43.959Z,6.97
2022-10-17T00:40:10.848Z,4.88
2022-10-17T00:42:37.487Z,6.38
2022-10-17T00:45:14.655Z,5.35
2022-10-17T00:47:42.726Z,4.93
2022-10-17T00:50:10.248Z,6.75
2022-10-17T00:52:37.021Z,4.93
2022-10-17T00:55:17.702Z,5.10
2022-10-17T00:57:46.127Z,5.10
2022-10-17T01:00:14.152Z,5.43
2022-10-17T01:02:40.687Z,5.72
2022-10-17T01:05:08.064Z,7.10
2022-10-17T01:07:37.242Z,7.45
2022-10-17T01:10:06.701Z,9.27
2022-10-17T01:13:03.902Z,6.63
2022-10-17T01:15:49.087Z,6.55
2022-10-17T01:18:31.048Z,5.72
2022-10-17T01:21:09.832Z,5.72
2022-10-17T01:24:02.652Z,5.70
2022-10-17T01:26:52.538Z,4.50
2022-10-17T01:29:25.246Z,5.30
2022-10-17T01:32:00.800Z,4.55
2022-10-17T01:34:41.477Z,7.43
2022-10-17T01:37:20.304Z,7.00
2022-10-17T01:40:03.203Z,10.02
2022-10-17T01:43:11.547Z,5.25
2022-10-17T01:45:46.975Z,6.03
2022-10-17T01:48:18.474Z,4.63
2022-10-17T01:50:52.859Z,4.95
2022-10-17T01:53:26.380Z,9.02
2022-10-17T01:55:55.510Z,5.88
2022-10-17T01:58:31.587Z,6.72
2022-10-17T02:01:03.041Z,6.70
2022-10-17T02:03:32.421Z,6.15
2022-10-17T02:05:58.976Z,3.80
2022-10-17T02:08:40.408Z,3.92
2022-10-17T02:11:18.488Z,4.80
2022-10-17T02:16:59.536Z,6.28
2022-10-17T02:19:46.719Z,4.60
2022-10-17T02:22:58.630Z,7.18
2022-10-17T02:25:32.468Z,4.72
2022-10-17T02:28:23.897Z,6.75
2022-10-17T02:30:53.298Z,9.10
2022-10-17T02:33:30.968Z,8.48
2022-10-17T02:36:02.959Z,5.85
2022-10-17T02:38:31.754Z,4.35
2022-10-17T02:40:59.097Z,6.28
2022-10-17T02:43:26.029Z,4.97
2022-10-17T02:45:52.939Z,5.47
2022-10-17T02:48:37.645Z,4.53
2022-10-17T02:51:11.034Z,5.25
2022-10-17T02:53:53.313Z,4.97
2022-10-17T02:56:21.621Z,4.90
2022-10-17T02:58:56.039Z,6.43
2022-10-17T03:01:23.115Z,6.13
2022-10-17T03:03:49.749Z,5.85
2022-10-17T03:06:16.545Z,4.13
2022-10-17T03:08:43.230Z,4.32
2022-10-17T03:11:09.768Z,4.30
2022-10-17T03:13:39.053Z,4.47
2022-10-17T03:16:06.566Z,4.80
2022-10-17T03:18:33.184Z,4.63
2022-10-17T03:20:59.705Z,4.95
2022-10-17T03:23:26.256Z,6.95
2022-10-17T03:25:52.787Z,7.13
2022-10-17T03:28:19.298Z,4.63
2022-10-17T03:30:45.813Z,5.20
2022-10-17T03:33:12.353Z,4.90
2022-10-17T03:35:40.618Z,4.45
2022-10-17T03:38:07.284Z,3.88
2022-10-17T03:40:33.801Z,5.45
2022-10-17T03:43:00.333Z,5.78
2022-10-17T03:45:29.986Z,4.20
2022-10-17T03:47:56.556Z,5.13
2022-10-17T03:50:23.075Z,6.50
2022-10-17T03:52:49.980Z,4.47
2022-10-17T03:55:17.349Z,5.03
2022-10-17T03:57:45.509Z,5.18
2022-10-17T04:00:12.869Z,4.07
2022-10-17T04:02:39.403Z,4.53
2022-10-17T04:05:06.556Z,4.20
2022-10-17T04:07:33.109Z,4.35
2022-10-17T04:09:59.640Z,4.25
2022-10-17T04:12:26.330Z,6.82
2022-10-17T04:14:53.127Z,5.40
2022-10-17T04:17:19.692Z,4.63
2022-10-17T04:19:46.177Z,4.57
2022-10-17T04:22:12.687Z,4.90
2022-10-17T04:24:39.313Z,5.78
2022-10-17T04:27:05.878Z,6.28
2022-10-17T04:29:32.418Z,6.43
2022-10-17T04:31:59.001Z,6.18
2022-10-17T04:34:25.534Z,4.95
2022-10-17T04:36:52.416Z,3.78
2022-10-17T04:39:18.987Z,9.88
2022-10-17T04:41:45.581Z,7.53
2022-10-17T04:44:12.285Z,3.97
2022-10-17T04:46:39.335Z,9.63
2022-10-17T04:49:05.984Z,3.85
2022-10-17T04:51:32.666Z,5.13
2022-10-17T04:53:59.187Z,3.72
2022-10-17T04:56:25.760Z,4.28
2022-10-17T04:58:52.566Z,5.28
2022-10-17T05:01:21.445Z,4.10
2022-10-17T05:03:48.699Z,3.95
2022-10-17T05:06:18.580Z,4.60
2022-10-17T05:08:45.935Z,6.40
2022-10-17T05:11:38.997Z,8.68
2022-10-17T05:14:05.574Z,4.50
2022-10-17T05:16:32.108Z,3.53
2022-10-17T05:18:59.235Z,4.88
2022-10-17T05:21:27.330Z,3.83
2022-10-17T05:23:54.520Z,5.95
2022-10-17T05:26:22.202Z,5.45
2022-10-17T05:28:48.775Z,3.72
2022-10-17T05:31:15.680Z,4.65
2022-10-17T05:33:42.424Z,3.72
2022-10-17T05:36:09.029Z,5.18
2022-10-17T05:38:36.057Z,5.20
2022-10-17T05:41:05.180Z,3.92
2022-10-17T05:43:33.092Z,4.78
2022-10-17T05:46:03.839Z,4.13
2022-10-17T05:48:30.519Z,4.30
2022-10-17T05:51:02.538Z,4.05
2022-10-17T05:53:34.088Z,9.07
2022-10-17T05:56:03.179Z,6.00
2022-10-17T05:58:49.239Z,5.13
2022-10-17T06:01:17.154Z,4.82
2022-10-17T06:03:43.735Z,5.90
2022-10-17T06:06:12.505Z,3.78
2022-10-17T06:08:39.302Z,7.38
2022-10-17T06:11:09.174Z,4.80
2022-10-17T06:13:37.060Z,5.25
2022-10-17T06:16:03.661Z,8.00
2022-10-17T06:18:30.295Z,6.47
2022-10-17T06:21:03.673Z,10.05
2022-10-17T06:23:30.250Z,6.70
2022-10-17T06:26:01.820Z,4.57
2022-10-17T06:28:28.491Z,5.18
2022-10-17T06:30:55.100Z,5.63
2022-10-17T06:33:23.386Z,6.30
2022-10-17T06:35:56.770Z,5.38
2022-10-17T06:38:23.827Z,5.35
2022-10-17T06:40:50.481Z,5.47
2022-10-17T06:43:17.011Z,6.38
2022-10-17T06:45:45.861Z,6.35
2022-10-17T06:48:12.508Z,6.47
2022-10-17T06:50:39.091Z,9.48
2022-10-17T06:53:05.729Z,9.02
2022-10-17T06:55:32.811Z,6.03
2022-10-17T06:57:59.367Z,6.97
2022-10-17T07:00:26.898Z,5.45
2022-10-17T07:02:53.521Z,6.28
2022-10-17T07:05:20.107Z,4.03
2022-10-17T07:07:48.567Z,6.75
2022-10-17T07:10:18.308Z,6.07
2022-10-17T07:12:45.915Z,5.97
2022-10-17T07:15:12.573Z,9.98
2022-10-17T07:17:39.606Z,6.78
2022-10-17T07:20:06.786Z,7.25
2022-10-17T07:22:33.336Z,6.15
2022-10-17T07:25:00.057Z,4.55
2022-10-17T07:27:26.799Z,7.15
2022-10-17T07:29:53.525Z,5.28
2022-10-17T07:32:20.143Z,6.05
2022-10-17T07:34:46.661Z,7.30
2022-10-17T07:37:13.489Z,5.45
2022-10-17T07:39:40.206Z,4.82
2022-10-17T07:42:07.822Z,7.85
2022-10-17T07:44:35.571Z,8.15
2022-10-17T07:47:02.497Z,8.60
2022-10-17T07:49:29.439Z,6.10
2022-10-17T07:51:56.079Z,8.45
2022-10-17T07:54:23.074Z,6.30
2022-10-17T07:56:52.566Z,7.18
2022-10-17T07:59:19.803Z,5.80
2022-10-17T08:01:46.584Z,5.00
2022-10-17T08:04:13.155Z,6.70
2022-10-17T08:06:39.685Z,6.10
2022-10-17T08:09:06.714Z,4.50
2022-10-17T08:11:33.275Z,5.97
2022-10-17T08:13:59.848Z,7.78
2022-10-17T08:16:26.650Z,7.65
2022-10-17T08:18:53.328Z,6.82
2022-10-17T08:21:19.973Z,5.00
2022-10-17T08:23:46.628Z,9.93
2022-10-17T08:26:16.712Z,4.82
2022-10-17T08:28:43.358Z,4.93
2022-10-17T08:31:12.897Z,4.45
2022-10-17T08:33:39.701Z,3.63
2022-10-17T08:36:07.172Z,4.85
2022-10-17T08:38:36.382Z,4.75
2022-10-17T08:41:12.094Z,4.65
2022-10-17T08:44:12.216Z,8.80
2022-10-17T08:46:42.253Z,4.25
2022-10-17T08:49:20.377Z,4.55
2022-10-17T08:51:58.963Z,3.90
2022-10-17T08:54:43.303Z,6.22
2022-10-17T08:57:13.420Z,5.80
2022-10-17T08:59:40.063Z,4.13
2022-10-17T09:02:30.833Z,4.07
2022-10-17T09:05:01.803Z,3.80
2022-10-17T09:07:39.721Z,4.18
2022-10-17T09:10:18.433Z,3.75
2022-10-17T09:12:49.639Z,3.33
2022-10-17T09:15:34.438Z,4.35
2022-10-17T09:18:23.213Z,4.65
2022-10-17T09:20:54.001Z,2.97
2022-10-17T09:23:27.211Z,3.40
2022-10-17T09:25:58.939Z,3.50
2022-10-17T09:28:30.627Z,6.63
2022-10-17T09:31:00.151Z,3.85
2022-10-17T09:33:42.609Z,3.25
2022-10-17T09:36:20.911Z,3.35
2022-10-17T09:38:55.925Z,3.72
2022-10-17T09:41:57.543Z,3.53
2022-10-17T09:44:20.691Z,4.07
2022-10-17T09:46:58.320Z,5.07
2022-10-17T09:49:37.270Z,3.67
2022-10-17T09:52:08.805Z,4.47
2022-10-17T09:54:53.394Z,5.03
2022-10-17T09:57:21.795Z,4.25
2022-10-17T10:00:01.368Z,5.35
2022-10-17T10:02:30.590Z,2.92
2022-10-17T10:05:06.056Z,2.72
2022-10-17T10:07:38.765Z,3.67
2022-10-17T10:10:28.112Z,3.25
2022-10-17T10:13:16.213Z,5.63
2022-10-17T10:15:48.033Z,4.72
2022-10-17T10:21:06.805Z,4.25
2022-10-17T10:23:34.155Z,4.07
2022-10-17T10:26:05.913Z,3.97
2022-10-17T10:28:35.630Z,3.00
2022-10-17T10:31:07.804Z,5.43
2022-10-17T10:33:41.375Z,3.75
2022-10-17T10:36:08.292Z,5.80
2022-10-17T10:38:35.708Z,4.15
2022-10-17T10:41:08.312Z,3.38
2022-10-17T10:43:43.322Z,4.55
2022-10-17T10:46:26.823Z,6.32
2022-10-17T10:48:59.758Z,4.53
2022-10-17T10:51:37.983Z,3.58
2022-10-17T10:54:30.010Z,4.05
2022-10-17T10:57:03.623Z,6.80
2022-10-17T11:02:23.683Z,4.00
2022-10-17T11:05:20.075Z,2.85
2022-10-17T11:08:01.130Z,4.18
2022-10-17T11:10:58.360Z,2.88
2022-10-17T11:13:29.987Z,3.42
2022-10-17T11:16:20.576Z,3.33
2022-10-17T11:18:58.505Z,5.43
2022-10-17T11:21:45.526Z,2.92
2022-10-17T11:24:28.546Z,4.75
2022-10-17T11:27:01.098Z,2.83
2022-10-17T11:29:31.607Z,4.20
2022-10-17T11:32:03.268Z,3.53
2022-10-17T11:34:35.029Z,3.33
2022-10-17T11:37:09.976Z,4.13
2022-10-17T11:39:49.687Z,2.40
2022-10-17T11:42:24.747Z,4.90
2022-10-17T11:44:56.743Z,3.45
2022-10-17T11:47:34.137Z,2.75
2022-10-17T11:53:23.893Z,2.70
2022-10-17T11:55:52.563Z,4.53
2022-10-17T11:58:19.165Z,3.50
2022-10-17T12:00:57.931Z,3.00
2022-10-17T12:03:27.533Z,3.55
2022-10-17T12:06:16.374Z,3.45
2022-10-17T12:09:16.688Z,4.32
2022-10-17T12:11:58.500Z,2.47
2022-10-17T12:14:35.299Z,2.35
2022-10-17T12:17:03.281Z,2.67
2022-10-17T12:19:37.534Z,3.00
2022-10-17T12:22:26.637Z,3.97
2022-10-17T12:25:02.727Z,2.80
2022-10-17T12:27:37.089Z,4.60
2022-10-17T12:30:17.455Z,2.20
2022-10-17T12:33:12.095Z,4.13
2022-10-17T12:35:39.308Z,3.75
2022-10-17T12:38:20.829Z,3.45
2022-10-17T12:40:50.763Z,2.50
2022-10-17T12:43:17.266Z,2.20
2022-10-17T12:46:01.207Z,2.40
2022-10-17T12:49:01.763Z,2.42
2022-10-17T12:51:37.881Z,2.70
2022-10-17T12:54:15.129Z,2.28
2022-10-17T12:56:45.638Z,3.05
2022-10-17T12:59:24.123Z,4.50
2022-10-17T13:01:55.281Z,2.85
2022-10-17T13:04:22.501Z,2.83
2022-10-17T13:06:54.121Z,2.30
2022-10-17T13:09:37.707Z,3.17
2022-10-17T13:12:06.417Z,5.07
2022-10-17T13:14:41.102Z,2.85
2022-10-17T13:17:22.056Z,3.45
2022-10-17T13:19:48.641Z,2.53
2022-10-17T13:22:18.913Z,2.85
2022-10-17T13:24:45.998Z,3.25
2022-10-17T13:27:27.936Z,2.10
2022-10-17T13:29:56.613Z,4.93
2022-10-17T13:32:25.027Z,3.15
2022-10-17T13:35:07.287Z,2.80
2022-10-17T13:37:35.357Z,3.55
2022-10-17T13:40:16.215Z,3.97
2022-10-17T13:42:51.802Z,4.65
2022-10-17T13:45:30.112Z,3.55
2022-10-17T13:48:00.141Z,2.97
2022-10-17T13:50:44.077Z,7.75
2022-10-17T13:53:30.808Z,3.47
2022-10-17T13:56:31.449Z,3.40
2022-10-17T13:59:05.099Z,9.20
2022-10-17T14:01:32.098Z,3.25
2022-10-17T14:04:19.177Z,5.13
2022-10-17T14:06:49.467Z,3.67
2022-10-17T14:09:25.966Z,4.53
2022-10-17T14:12:12.838Z,2.42
2022-10-17T14:15:08.758Z,5.40
2022-10-17T14:17:33.628Z,3.20
2022-10-17T14:20:34.017Z,2.75
2022-10-17T14:23:21.094Z,4.30
2022-10-17T14:25:41.045Z,2.50
2022-10-17T14:28:09.502Z,3.65
2022-10-17T14:30:55.742Z,3.72
2022-10-17T14:33:32.518Z,3.05
2022-10-17T14:36:00.893Z,4.00
2022-10-17T14:38:29.166Z,4.35
2022-10-17T14:41:29.673Z,4.05
2022-10-17T14:44:31.611Z,3.58
2022-10-17T14:47:30.145Z,4.40
2022-10-17T14:50:01.982Z,5.07
2022-10-17T14:52:31.242Z,2.97
2022-10-17T14:54:59.560Z,3.17
2022-10-17T14:57:28.083Z,4.20
2022-10-17T14:59:58.102Z,2.65
2022-10-17T15:02:26.861Z,3.28
2022-10-17T15:04:54.089Z,5.40
2022-10-17T15:07:21.336Z,3.40
2022-10-17T15:09:49.356Z,3.75
2022-10-17T15:12:22.692Z,1.92
2022-10-17T15:14:50.658Z,6.55
2022-10-17T15:17:23.604Z,2.50
2022-10-17T15:19:50.835Z,4.10
2022-10-17T15:22:18.290Z,5.65
2022-10-17T15:24:48.246Z,7.18
2022-10-17T15:27:26.337Z,6.45
2022-10-17T15:29:53.117Z,13.00
2022-10-17T15:32:19.734Z,14.02
2022-10-17T15:34:46.368Z,12.93
2022-10-17T15:37:24.957Z,7.43
2022-10-17T15:39:54.562Z,5.70
2022-10-17T15:42:23.427Z,3.92
2022-10-17T15:44:50.363Z,4.60
2022-10-17T15:47:28.004Z,4.78
2022-10-17T15:49:55.544Z,4.95
2022-10-17T15:52:23.526Z,4.10
2022-10-17T15:54:50.403Z,2.75
2022-10-17T15:57:30.178Z,2.70
2022-10-17T15:59:58.701Z,3.28
2022-10-17T16:02:25.257Z,4.85
2022-10-17T16:04:52.082Z,5.22
2022-10-17T16:07:20.209Z,3.05
2022-10-17T16:09:47.110Z,3.10
2022-10-17T16:12:19.574Z,5.53
2022-10-17T16:14:46.245Z,4.82
2022-10-17T16:17:17.006Z,5.50
2022-10-17T16:19:44.135Z,6.28
2022-10-17T16:22:20.944Z,3.60
2022-10-17T16:24:47.491Z,3.97
2022-10-17T16:27:14.089Z,3.83
2022-10-17T16:29:40.598Z,3.55
2022-10-17T16:32:07.252Z,4.60
2022-10-17T16:34:33.833Z,5.18
2022-10-17T16:37:00.367Z,6.53
2022-10-17T16:41:57.703Z,3.80
2022-10-17T16:44:25.409Z,5.55
2022-10-17T16:46:51.986Z,4.45
2022-10-17T16:49:18.577Z,7.68
2022-10-17T16:51:45.233Z,6.35
2022-10-17T16:54:11.797Z,5.13
2022-10-17T16:56:38.316Z,3.35
2022-10-17T16:59:05.020Z,6.60
2022-10-17T17:01:31.715Z,11.23
2022-10-17T17:03:58.718Z,7.47
2022-10-17T17:06:28.409Z,4.63
2022-10-17T17:08:55.811Z,4.18
2022-10-17T17:11:24.813Z,6.03
2022-10-17T17:13:51.606Z,7.93
2022-10-17T17:16:24.154Z,4.75
2022-10-17T17:18:58.831Z,7.88
2022-10-17T17:21:27.077Z,6.45
2022-10-17T17:23:57.008Z,6.38
2022-10-17T17:26:24.223Z,4.80
2022-10-17T17:28:51.596Z,4.60
2022-10-17T17:31:23.221Z,4.80
2022-10-17T17:33:50.713Z,6.07
2022-10-17T17:36:23.549Z,11.68
2022-10-17T17:38:51.436Z,13.68
2022-10-17T17:41:20.219Z,6.82
2022-10-17T17:43:47.925Z,9.25
2022-10-17T17:46:17.007Z,4.75
2022-10-17T17:48:44.931Z,5.53
2022-10-17T17:51:13.850Z,6.60
2022-10-17T17:53:41.134Z,10.75
2022-10-17T17:56:14.188Z,10.88
2022-10-17T17:58:45.807Z,6.88
2022-10-17T18:01:20.684Z,6.82
2022-10-17T18:03:52.072Z,7.38
2022-10-17T18:06:20.193Z,8.57
2022-10-17T18:08:49.670Z,8.45
2022-10-17T18:11:19.604Z,8.80
2022-10-17T18:13:52.646Z,8.38
2022-10-17T18:16:19.346Z,6.63
2022-10-17T18:18:46.130Z,5.50
2022-10-17T18:21:14.204Z,7.68
2022-10-17T18:23:42.497Z,6.28
2022-10-17T18:26:09.911Z,7.70
2022-10-17T18:28:38.365Z,7.75
2022-10-17T18:31:11.219Z,5.70
2022-10-17T18:33:37.994Z,8.47
2022-10-17T18:36:07.386Z,8.40
2022-10-17T18:38:34.173Z,5.95
2022-10-17T18:41:08.891Z,6.60
2022-10-17T18:43:36.835Z,5.85
2022-10-17T18:46:14.984Z,6.75
2022-10-17T18:48:44.486Z,5.57
2022-10-17T18:51:12.569Z,8.45
2022-10-17T18:53:41.141Z,14.48
2022-10-17T18:56:08.806Z,6.70
2022-10-17T18:58:37.079Z,5.80
2022-10-17T19:01:05.557Z,8.35
2022-10-17T19:03:32.699Z,6.68
2022-10-17T19:06:07.458Z,7.47
2022-10-17T19:08:35.380Z,8.23
2022-10-17T19:11:07.043Z,5.82
2022-10-17T19:13:33.853Z,6.68
2022-10-17T19:16:04.238Z,8.18
2022-10-17T19:18:30.773Z,7.43
2022-10-17T19:21:05.559Z,6.68
2022-10-17T19:23:32.577Z,7.47
2022-10-17T19:26:05.524Z,7.93
2022-10-17T19:28:33.379Z,8.00
2022-10-17T19:31:00.323Z,8.15
2022-10-17T19:36:00.833Z,7.38
2022-10-17T19:38:27.780Z,7.65
2022-10-17T19:40:54.561Z,7.07
2022-10-17T19:43:21.276Z,8.57
2022-10-17T19:45:58.154Z,8.02
2022-10-17T19:48:25.442Z,6.00
2022-10-17T19:50:53.100Z,9.02
2022-10-17T19:53:22.432Z,6.75
2022-10-17T19:55:48.954Z,6.00
2022-10-17T19:58:15.599Z,6.30
2022-10-17T20:00:57.160Z,7.30
2022-10-17T20:03:28.109Z,10.57
2022-10-17T20:05:54.961Z,7.70
2022-10-17T20:08:21.686Z,6.70
2022-10-17T20:10:48.433Z,8.32
2022-10-17T20:13:15.036Z,8.85
2022-10-17T20:15:41.628Z,12.20
2022-10-17T20:18:09.005Z,6.22
2022-10-17T20:20:36.756Z,8.65
2022-10-17T20:23:04.331Z,8.38
2022-10-17T20:25:31.030Z,7.93
2022-10-17T20:27:58.392Z,10.38
2022-10-17T20:30:28.020Z,5.78
2022-10-17T20:32:55.766Z,8.73
2022-10-17T20:35:22.994Z,6.75
2022-10-17T20:37:49.523Z,6.38
2022-10-17T20:40:34.044Z,7.05
2022-10-17T20:43:01.209Z,6.68
2022-10-17T20:45:38.354Z,9.20
2022-10-17T20:48:15.623Z,8.95
2022-10-17T20:50:43.811Z,7.93
2022-10-17T20:53:35.348Z,8.18
2022-10-17T20:56:02.987Z,6.13
2022-10-17T20:58:29.671Z,10.57
2022-10-17T21:00:56.282Z,5.97
2022-10-17T21:03:22.924Z,7.88
2022-10-17T21:05:49.698Z,8.35
2022-10-17T21:08:16.239Z,7.75
2022-10-17T21:10:42.892Z,9.48
2022-10-17T21:13:09.420Z,7.65
2022-10-17T21:15:36.458Z,7.07
2022-10-17T21:18:03.161Z,6.20
2022-10-17T21:20:29.659Z,7.75
2022-10-17T21:22:57.360Z,9.55
2022-10-17T21:25:24.038Z,7.65
2022-10-17T21:27:52.796Z,6.93
2022-10-17T21:30:20.989Z,8.60
2022-10-17T21:32:51.437Z,8.02
2022-10-17T21:35:18.509Z,7.32
2022-10-17T21:37:45.059Z,6.97
2022-10-17T21:40:12.485Z,8.60
2022-10-17T21:42:39.059Z,13.98
2022-10-17T21:45:15.291Z,16.52
2022-10-17T21:47:54.950Z,7.78
2022-10-17T21:50:30.812Z,10.43
2022-10-17T21:52:58.672Z,7.82
2022-10-17T21:55:28.035Z,8.48
2022-10-17T21:57:54.571Z,8.93
2022-10-17T22:00:21.221Z,8.57
2022-10-17T22:02:47.712Z,8.18
2022-10-17T22:05:14.338Z,8.45
2022-10-17T22:07:41.005Z,8.73
2022-10-17T22:10:07.874Z,7.15
2022-10-17T22:12:34.354Z,9.00
2022-10-17T22:15:00.929Z,7.75
2022-10-17T22:17:27.653Z,7.97
2022-10-17T22:19:54.306Z,9.70
2022-10-17T22:22:20.878Z,9.75
2022-10-17T22:24:47.394Z,8.35
2022-10-17T22:27:16.766Z,7.40
2022-10-17T22:29:43.318Z,8.65
2022-10-17T22:32:09.859Z,10.77
2022-10-17T22:34:36.357Z,9.55
2022-10-17T22:37:02.946Z,6.35
2022-10-17T22:39:29.436Z,9.05
2022-10-17T22:41:56.052Z,8.05
2022-10-17T22:44:22.564Z,8.07
2022-10-17T22:46:49.302Z,6.97
2022-10-17T22:49:15.815Z,11.77
2022-10-17T22:51:42.427Z,10.75
2022-10-17T22:54:08.973Z,6.18
2022-10-17T22:56:35.535Z,8.75
2022-10-17T22:59:02.452Z,7.97
2022-10-17T23:01:29.034Z,8.40
2022-10-17T23:03:55.604Z,6.93
2022-10-17T23:06:25.241Z,8.88
2022-10-17T23:08:52.293Z,8.15
2022-10-17T23:11:18.970Z,10.88
2022-10-17T23:13:45.652Z,10.02
2022-10-17T23:16:12.326Z,9.95
2022-10-17T23:18:39.288Z,6.43
2022-10-17T23:21:06.559Z,13.88
2022-10-17T23:23:33.146Z,8.07
2022-10-17T23:26:09.884Z,7.05
2022-10-17T23:28:36.945Z,9.15
2022-10-17T23:31:18.167Z,8.27
2022-10-17T23:33:46.468Z,8.95
2022-10-17T23:36:15.193Z,9.63
2022-10-17T23:38:43.552Z,7.88
2022-10-17T23:41:10.473Z,8.32
2022-10-17T23:43:37.550Z,7.07
2022-10-17T23:46:05.555Z,6.75
2022-10-17T23:48:32.405Z,8.45
2022-10-17T23:50:58.966Z,7.97
2022-10-17T23:53:26.360Z,6.65
2022-10-17T23:55:53.067Z,7.50
2022-10-17T23:58:19.638Z,8.55
